D/T METAR WX W/DIR W/SPE G/SPE TEMP DEWP
15/01/19 19:00 EIKN 151900Z 21012KT 9999 SCT012 SCT031 07/06 Q1006 NOSIG SSW (210°) 13.8mph 7°C 6°C
15/01/19 18:30 EIKN 151830Z 22012G22KT 170V250 9999 -RA BKN015 BKN038 07/06 Q1006 NOSIG -RA SW (220°) 13.8mph 25.3mph 7°C 6°C
15/01/19 18:00 EIKN 151800Z 22014KT 180V260 9999 -DZ BKN018 BKN027 08/06 Q1007 NOSIG -DZ SW (220°) 16.1mph 8°C 6°C
15/01/19 17:30 EIKN 151730Z 21012KT 9999 FEW018 SCT034 07/06 Q1007 NOSIG SSW (210°) 13.8mph 7°C 6°C
15/01/19 17:00 EIKN 151700Z 21012KT 180V250 9999 FEW017 SCT032 08/07 Q1008 NOSIG SSW (210°) 13.8mph 8°C 7°C
15/01/19 16:30 EIKN 151630Z 22013KT 180V250 9999 SCT017 SCT032 08/07 Q1008 NOSIG SW (220°) 15.0mph 8°C 7°C
15/01/19 16:00 EIKN 151600Z 21009KT 180V250 9999 FEW008 SCT018 BKN180 08/07 Q1008 NOSIG SSW (210°) 10.4mph 8°C 7°C
15/01/19 15:30 EIKN 151530Z 22008KT 180V250 9999 SCT010 SCT042 08/08 Q1009 NOSIG SW (220°) 9.2mph 8°C 8°C
15/01/19 15:00 EIKN 151500Z 23008KT 180V270 9999 -RA BKN008 BKN015 09/08 Q1009 NOSIG -RA SW (230°) 9.2mph 9°C 8°C
15/01/19 14:30 EIKN 151430Z 22008KT 180V260 9999 BKN005 BKN028 09/09 Q1010 NOSIG SW (220°) 9.2mph 9°C 9°C
15/01/19 14:00 EIKN 151400Z 24011KT 190V270 9999 SCT004 BKN012 BKN038 08/08 Q1010 NOSIG WSW (240°) 12.7mph 8°C 8°C
15/01/19 13:30 EIKN 151330Z 22011KT 190V250 6000 -DZ OVC002 08/08 Q1011 TEMPO 4000 BKN005 -DZ SW (220°) 12.7mph 8°C 8°C
15/01/19 13:00 EIKN 151300Z 22012KT 180V250 6000 -DZ BKN004 SCT024 08/08 Q1011 TEMPO 4000 BKN005 -DZ SW (220°) 13.8mph 8°C 8°C
15/01/19 12:30 EIKN 151230Z 21012G22KT 180V240 9999 BKN004 SCT036 08/08 Q1012 TEMPO 4000 BKN005 SSW (210°) 13.8mph 25.3mph 8°C 8°C
15/01/19 12:00 EIKN 151200Z 21013KT 9999 BKN004 SCT090 08/08 Q1012 TEMPO 4000 BKN005 SSW (210°) 15.0mph 8°C 8°C
15/01/19 11:30 EIKN 151130Z 21012KT 2000 -RADZ OVC003 08/08 Q1013 TEMPO 4000 BKN005 -RA -DZ SSW (210°) 13.8mph 8°C 8°C
15/01/19 11:00 EIKN 151100Z 21011KT 170V240 9999 BKN004 SCT100 08/07 Q1013 TEMPO 4000 BKN005 SSW (210°) 12.7mph 8°C 7°C
15/01/19 10:30 EIKN 151030Z 21008KT 160V250 0600 R26/P1400 -DZ FG VV002 07/07 Q1014 TEMPO 4000 BKN005 -DZ FG SSW (210°) 9.2mph 7°C 7°C
15/01/19 10:00 EIKN 151000Z 21011KT 170V240 9999 BKN004 SCT027 07/07 Q1014 TEMPO 4000 SSW (210°) 12.7mph 7°C 7°C
15/01/19 09:30 EIKN 150930Z 21011KT 9999 FEW005 BKN027 08/06 Q1014 NOSIG SSW (210°) 12.7mph 8°C 6°C
15/01/19 09:00 EIKN 150900Z 20010KT 170V230 9999 BKN035 SCT120 07/06 Q1015 NOSIG SSW (200°) 11.5mph 7°C 6°C
15/01/19 08:30 EIKN 150830Z 21010KT 170V240 9999 BKN039 SCT120 08/06 Q1015 NOSIG SSW (210°) 11.5mph 8°C 6°C
15/01/19 08:00 EIKN 150800Z 22009KT 180V250 9999 OVC040 08/06 Q1015 NOSIG SW (220°) 10.4mph 8°C 6°C
15/01/19 07:30 EIKN 150730Z 21010KT 180V240 9999 OVC039 08/06 Q1015 NOSIG SSW (210°) 11.5mph 8°C 6°C
15/01/19 07:00 EIKN 150700Z 21008KT 140V240 9999 OVC039 08/06 Q1015 NOSIG SSW (210°) 9.2mph 8°C 6°C
15/01/19 06:30 EIKN 150630Z 22008KT 180V250 9999 OVC037 08/06 Q1016 NOSIG SW (220°) 9.2mph 8°C 6°C
15/01/19 06:00 EIKN 150600Z 22008KT 190V260 9999 OVC037 08/06 Q1016 NOSIG SW (220°) 9.2mph 8°C 6°C
14/01/19 20:00 EIKN 142000Z 26010KT 9999 OVC002 07/07 Q1020 NOSIG W (260°) 11.5mph 7°C 7°C
14/01/19 19:30 EIKN 141930Z 25010KT 7000 -DZ OVC002 07/07 Q1020 NOSIG -DZ WSW (250°) 11.5mph 7°C 7°C
14/01/19 19:00 EIKN 141900Z 25012KT 3000 -DZ OVC002 07/07 Q1020 NOSIG -DZ WSW (250°) 13.8mph 7°C 7°C
14/01/19 18:30 EIKN 141830Z 25012KT 9999 BKN003 BKN025 07/07 Q1021 NOSIG WSW (250°) 13.8mph 7°C 7°C
14/01/19 18:00 EIKN 141800Z 24010KT 210V270 9999 -DZ BKN005 BKN020 07/07 Q1021 NOSIG -DZ WSW (240°) 11.5mph 7°C 7°C
14/01/19 17:30 EIKN 141730Z 24010KT 220V280 9999 BKN005 BKN025 07/07 Q1021 NOSIG WSW (240°) 11.5mph 7°C 7°C
14/01/19 17:00 EIKN 141700Z 24009KT 210V280 8000 BKN002 BKN010 07/07 Q1021 NOSIG WSW (240°) 10.4mph 7°C 7°C
14/01/19 16:30 EIKN 141630Z 20006KT 170V240 4000 -RADZ BKN007 BKN020 07/07 Q1021 NOSIG -RA -DZ SSW (200°) 6.9mph 7°C 7°C
14/01/19 16:00 EIKN 141600Z 19005KT 9999 -DZ BKN007 BKN020 07/06 Q1021 NOSIG -DZ S (190°) 5.8mph 7°C 6°C
14/01/19 15:30 EIKN 141530Z 20006KT 170V230 9999 BKN006 BKN020 07/06 Q1021 NOSIG SSW (200°) 6.9mph 7°C 6°C
14/01/19 15:00 EIKN 141500Z 24010KT 9999 -DZ BKN006 BKN020 07/07 Q1022 NOSIG -DZ WSW (240°) 11.5mph 7°C 7°C
14/01/19 14:30 EIKN 141430Z 24010KT 210V270 9999 BKN008 BKN020 07/06 Q1022 NOSIG WSW (240°) 11.5mph 7°C 6°C
14/01/19 14:00 EIKN 141400Z 24008KT 9999 BKN009 BKN016 07/06 Q1022 NOSIG WSW (240°) 9.2mph 7°C 6°C
14/01/19 13:30 EIKN 141330Z 24006KT 210V270 9999 SCT006 BKN017 BKN025 07/06 Q1023 NOSIG WSW (240°) 6.9mph 7°C 6°C
14/01/19 13:00 EIKN 141300Z 24007KT 9999 BKN010 BKN025 07/06 Q1023 NOSIG WSW (240°) 8.1mph 7°C 6°C
14/01/19 12:30 EIKN 141230Z 24006KT 210V270 9999 BKN014 BKN032 06/06 Q1023 NOSIG WSW (240°) 6.9mph 6°C 6°C
14/01/19 12:00 EIKN 141200Z 25007KT 220V290 9999 OVC007 06/06 Q1023 NOSIG WSW (250°) 8.1mph 6°C 6°C
14/01/19 11:30 EIKN 141130Z 23006KT 9999 OVC015 06/04 Q1023 NOSIG SW (230°) 6.9mph 6°C 4°C
14/01/19 11:00 EIKN 141100Z 23004KT 200V260 9999 OVC024 06/03 Q1023 NOSIG SW (230°) 4.6mph 6°C 3°C
14/01/19 10:30 EIKN 141030Z 24005KT 200V280 9999 BKN028 06/03 Q1023 NOSIG WSW (240°) 5.8mph 6°C 3°C
14/01/19 10:00 EIKN 141000Z 25004KT 210V280 9999 BKN029 06/03 Q1023 NOSIG WSW (250°) 4.6mph 6°C 3°C
14/01/19 09:30 EIKN 140930Z 26004KT 9999 BKN030 06/02 Q1023 NOSIG W (260°) 4.6mph 6°C 2°C
14/01/19 09:00 EIKN 140900Z 26006KT 9999 BKN031 06/02 Q1023 NOSIG W (260°) 6.9mph 6°C 2°C
14/01/19 08:30 EIKN 140830Z 27007KT 9999 BKN031 06/02 Q1023 NOSIG W (270°) 8.1mph 6°C 2°C
14/01/19 08:00 EIKN 140800Z 27006KT 9999 BKN029 06/02 Q1023 NOSIG W (270°) 6.9mph 6°C 2°C
14/01/19 07:30 EIKN 140730Z 30007KT 9999 BKN030 06/01 Q1023 NOSIG WNW (300°) 8.1mph 6°C 1°C
14/01/19 07:00 EIKN 140700Z 30012KT 9999 BKN031 06/02 Q1023 NOSIG WNW (300°) 13.8mph 6°C 2°C
14/01/19 06:00 EIKN 140600Z 29010KT 9999 BKN030 06/02 Q1023 NOSIG WNW (290°) 11.5mph 6°C 2°C
13/01/19 19:00 EIKN 131900Z 31019KT 9999 SCT026 BKN032 07/03 Q1020 NOSIG NW (310°) 21.9mph 7°C 3°C
13/01/19 18:30 EIKN 131830Z 31018KT 9999 FEW025 BKN033 07/03 Q1020 NOSIG NW (310°) 20.7mph 7°C 3°C
13/01/19 18:00 EIKN 131800Z 30016KT 9999 BKN035 SCT150 07/03 Q1019 NOSIG WNW (300°) 18.4mph 7°C 3°C
13/01/19 17:30 EIKN 131730Z 31016KT 9999 FEW018 BKN031 07/03 Q1019 NOSIG NW (310°) 18.4mph 7°C 3°C
13/01/19 17:00 EIKN 131700Z 31015KT 9999 BKN032 SCT150 07/05 Q1019 NOSIG NW (310°) 17.3mph 7°C 5°C
13/01/19 16:30 EIKN 131630Z 31013KT 9999 -DZ FEW017 BKN024 BKN150 08/04 Q1019 NOSIG -DZ NW (310°) 15.0mph 8°C 4°C
13/01/19 16:00 EIKN 131600Z 31015KT 280V360 9999 SCT014 BKN025 08/04 Q1018 NOSIG NW (310°) 17.3mph 8°C 4°C
13/01/19 15:30 EIKN 131530Z 30018G30KT 9999 BKN015 BKN020 08/05 Q1018 NOSIG WNW (300°) 20.7mph 34.5mph 8°C 5°C
13/01/19 15:00 EIKN 131500Z 30015KT 9999 BKN014 BKN020 08/06 Q1018 NOSIG WNW (300°) 17.3mph 8°C 6°C
13/01/19 14:30 EIKN 131430Z 30018KT 9000 -DZ FEW008 BKN014 08/07 Q1018 NOSIG -DZ WNW (300°) 20.7mph 8°C 7°C
13/01/19 14:00 EIKN 131400Z 30017G27KT 8000 -RADZ SCT012 BKN017 BKN030 09/06 Q1018 NOSIG -RA -DZ WNW (300°) 19.6mph 31.1mph 9°C 6°C
13/01/19 13:30 EIKN 131330Z 30019KT 270V330 9999 -RADZ BKN013 BKN030 09/07 Q1018 NOSIG -RA -DZ WNW (300°) 21.9mph 9°C 7°C
13/01/19 13:00 EIKN 131300Z 30023G34KT 9999 BKN018 BKN029 09/07 Q1018 NOSIG WNW (300°) 26.5mph 39.1mph 9°C 7°C
13/01/19 12:30 EIKN 131230Z 30024G35KT 270V330 9999 BKN016 BKN026 10/07 Q1018 NOSIG WNW (300°) 27.6mph 40.3mph 10°C 7°C
13/01/19 12:00 EIKN 131200Z 31024G34KT 9999 -DZ BKN007 BKN025 09/08 Q1018 NOSIG -DZ NW (310°) 27.6mph 39.1mph 9°C 8°C
13/01/19 11:30 EIKN 131130Z 30020KT 9999 BKN009 BKN020 09/08 Q1017 NOSIG WNW (300°) 23.0mph 9°C 8°C
13/01/19 11:00 EIKN 131100Z 30018KT 9999 -RA BKN010 BKN018 10/09 Q1018 NOSIG -RA WNW (300°) 20.7mph 10°C 9°C
13/01/19 10:30 EIKN 131030Z 28018KT 9999 BKN008 BKN016 09/09 Q1017 NOSIG W (280°) 20.7mph 9°C 9°C
13/01/19 10:00 EIKN 131000Z 27014KT 9999 -DZ BKN004 BKN015 09/09 Q1018 NOSIG -DZ W (270°) 16.1mph 9°C 9°C
13/01/19 09:30 EIKN 130930Z 27017KT 9999 -DZ BKN006 BKN016 09/09 Q1018 NOSIG -DZ W (270°) 19.6mph 9°C 9°C
13/01/19 09:00 EIKN 130900Z 28017KT 9999 -DZ BKN008 BKN016 09/09 Q1018 NOSIG -DZ W (280°) 19.6mph 9°C 9°C
13/01/19 08:30 EIKN 130830Z 27017KT 4000 -DZ BKN004 BKN014 09/09 Q1018 NOSIG -DZ W (270°) 19.6mph 9°C 9°C
13/01/19 08:00 EIKN 130800Z 27014KT 4000 -DZ BKN003 BKN011 09/09 Q1018 NOSIG -DZ W (270°) 16.1mph 9°C 9°C
13/01/19 07:30 EIKN 130730Z 27014KT 6000 OVC003 09/08 Q1018 NOSIG W (270°) 16.1mph 9°C 8°C
13/01/19 07:00 EIKN 130700Z 25015KT 220V280 6000 -DZ OVC003 08/08 Q1018 NOSIG -DZ WSW (250°) 17.3mph 8°C 8°C
12/01/19 19:00 EIKN 121900Z 27021KT 9999 BKN003 BKN013 08/08 Q1024 NOSIG W (270°) 24.2mph 8°C 8°C
12/01/19 18:30 EIKN 121830Z 27021KT 8000 BKN003 BKN013 08/08 Q1024 NOSIG W (270°) 24.2mph 8°C 8°C
12/01/19 18:00 EIKN 121800Z 26021G31KT 5000 -DZ BKN003 BKN012 08/08 Q1024 NOSIG -DZ W (260°) 24.2mph 35.7mph 8°C 8°C
12/01/19 17:30 EIKN 121730Z 26019KT 8000 -DZ BKN003 BKN012 09/08 Q1025 NOSIG -DZ W (260°) 21.9mph 9°C 8°C
12/01/19 17:00 EIKN 121700Z 25015KT 9999 BKN005 BKN016 09/08 Q1025 NOSIG WSW (250°) 17.3mph 9°C 8°C
12/01/19 16:30 EIKN 121630Z 25014KT 9999 BKN004 BKN012 09/08 Q1025 NOSIG WSW (250°) 16.1mph 9°C 8°C
12/01/19 16:00 EIKN 121600Z 26014KT 9999 BKN005 SCT016 09/08 Q1025 NOSIG W (260°) 16.1mph 9°C 8°C
12/01/19 15:30 EIKN 121530Z 26014KT 9999 SCT010 SCT020 09/08 Q1025 NOSIG W (260°) 16.1mph 9°C 8°C
12/01/19 15:00 EIKN 121500Z 27014KT 9999 BKN012 SCT020 09/08 Q1025 NOSIG W (270°) 16.1mph 9°C 8°C
12/01/19 14:30 EIKN 121430Z 27018KT 9999 SCT012 SCT020 09/08 Q1025 NOSIG W (270°) 20.7mph 9°C 8°C
12/01/19 14:00 EIKN 121400Z 27015KT 9999 BKN009 BKN023 09/08 Q1025 NOSIG W (270°) 17.3mph 9°C 8°C
12/01/19 13:30 EIKN 121330Z 27015KT 9999 BKN007 BKN016 09/08 Q1026 NOSIG W (270°) 17.3mph 9°C 8°C
12/01/19 13:00 EIKN 121300Z 28015KT 250V320 9999 BKN006 BKN013 09/08 Q1026 NOSIG W (280°) 17.3mph 9°C 8°C
12/01/19 12:30 EIKN 121230Z 27015KT 9999 BKN004 BKN014 09/08 Q1026 NOSIG W (270°) 17.3mph 9°C 8°C
12/01/19 12:00 EIKN 121200Z 27015KT 9999 BKN004 BKN015 08/08 Q1026 NOSIG W (270°) 17.3mph 8°C 8°C
12/01/19 11:30 EIKN 121130Z 27016KT 9999 BKN004 OVC010 08/07 Q1026 NOSIG W (270°) 18.4mph 8°C 7°C
12/01/19 11:00 EIKN 121100Z 27015KT 9999 -RADZ BKN007 BKN015 07/07 Q1026 NOSIG -RA -DZ W (270°) 17.3mph 7°C 7°C
12/01/19 10:30 EIKN 121030Z 28014KT 6000 -RADZ OVC009 07/07 Q1026 NOSIG -RA -DZ W (280°) 16.1mph 7°C 7°C
12/01/19 10:00 EIKN 121000Z 28014KT 9999 FEW006 BKN011 BKN025 07/06 Q1026 NOSIG W (280°) 16.1mph 7°C 6°C
12/01/19 09:30 EIKN 120930Z 28014KT 9999 FEW006 BKN012 BKN025 07/06 Q1026 NOSIG W (280°) 16.1mph 7°C 6°C
12/01/19 09:00 EIKN 120900Z 28013KT 9999 FEW006 BKN013 BKN025 07/06 Q1026 NOSIG W (280°) 15.0mph 7°C 6°C
12/01/19 08:30 EIKN 120830Z 28015KT 9999 FEW006 BKN011 BKN021 07/06 Q1026 NOSIG W (280°) 17.3mph 7°C 6°C
12/01/19 08:00 EIKN 120800Z 28013KT 9999 FEW005 BKN008 BKN021 07/06 Q1026 NOSIG W (280°) 15.0mph 7°C 6°C
12/01/19 07:30 EIKN 120730Z 29016KT 9999 FEW005 BKN011 BKN018 07/06 Q1026 NOSIG WNW (290°) 18.4mph 7°C 6°C
12/01/19 07:00 EIKN 120700Z 29019G30KT 250V320 9999 -RA BKN005 BKN016 07/06 Q1026 NOSIG -RA WNW (290°) 21.9mph 34.5mph 7°C 6°C
12/01/19 06:30 EIKN 120630Z 29012KT 9999 BKN007 BKN022 07/06 Q1026 NOSIG WNW (290°) 13.8mph 7°C 6°C
12/01/19 06:00 EIKN 120600Z 29013KT 9999 BKN005 BKN025 07/06 Q1026 NOSIG WNW (290°) 15.0mph 7°C 6°C
11/01/19 19:00 EIKN 111900Z 27016KT 6000 -RADZ BKN002 BKN012 08/08 Q1030 NOSIG -RA -DZ W (270°) 18.4mph 8°C 8°C
11/01/19 18:30 EIKN 111830Z 26013KT 9999 -DZ BKN003 BKN014 08/07 Q1030 NOSIG -DZ W (260°) 15.0mph 8°C 7°C
11/01/19 18:00 EIKN 111800Z 26014KT 9999 BKN006 BKN015 08/07 Q1030 NOSIG W (260°) 16.1mph 8°C 7°C
11/01/19 17:30 EIKN 111730Z 25011KT 9999 BKN004 BKN015 08/07 Q1030 NOSIG WSW (250°) 12.7mph 8°C 7°C
11/01/19 17:00 EIKN 111700Z 25016KT 9999 BKN004 BKN017 08/08 Q1030 NOSIG WSW (250°) 18.4mph 8°C 8°C
11/01/19 16:30 EIKN 111630Z 25011KT 9999 BKN005 BKN018 08/07 Q1031 NOSIG WSW (250°) 12.7mph 8°C 7°C
11/01/19 16:00 EIKN 111600Z 25008KT 9999 BKN006 BKN020 08/08 Q1031 NOSIG WSW (250°) 9.2mph 8°C 8°C
11/01/19 15:30 EIKN 111530Z 26015KT 9999 FEW005 BKN008 BKN023 08/08 Q1031 NOSIG W (260°) 17.3mph 8°C 8°C
11/01/19 15:00 EIKN 111500Z 27014KT 9999 SCT005 BKN010 BKN023 08/08 Q1032 NOSIG W (270°) 16.1mph 8°C 8°C
11/01/19 14:30 EIKN 111430Z 25012KT 9999 BKN008 BKN023 08/08 Q1032 NOSIG WSW (250°) 13.8mph 8°C 8°C
11/01/19 14:00 EIKN 111400Z 25009KT 9999 BKN004 BKN015 08/08 Q1032 NOSIG WSW (250°) 10.4mph 8°C 8°C
11/01/19 13:30 EIKN 111330Z 23008KT 180V270 9000 BKN002 BKN020 08/08 Q1032 NOSIG SW (230°) 9.2mph 8°C 8°C
11/01/19 13:00 EIKN 111300Z 23006KT 180V250 1800 -DZ OVC002 08/08 Q1032 NOSIG -DZ SW (230°) 6.9mph 8°C 8°C
11/01/19 12:30 EIKN 111230Z 24007KT 210V270 7000 -DZ BKN003 BKN026 08/08 Q1033 NOSIG -DZ WSW (240°) 8.1mph 8°C 8°C
11/01/19 12:00 EIKN 111200Z 24006KT 5000 BR BKN002 BKN020 08/07 Q1033 NOSIG BR WSW (240°) 6.9mph 8°C 7°C
11/01/19 11:30 EIKN 111130Z 22004KT 170V270 4500 BR SCT002 BKN011 BKN028 08/07 Q1033 NOSIG BR SW (220°) 4.6mph 8°C 7°C
11/01/19 11:00 EIKN 111100Z 25008KT 9999 -DZ FEW002 BKN016 BKN028 07/07 Q1034 NOSIG -DZ WSW (250°) 9.2mph 7°C 7°C
11/01/19 10:30 EIKN 111030Z 23006KT 0400 R26/0500U FG BKN002 BKN028 07/07 Q1034 NOSIG FG SW (230°) 6.9mph 7°C 7°C
11/01/19 10:00 EIKN 111000Z 23005KT 0300 R26/0350D FG BKN002 BKN028 06/06 Q1034 NOSIG FG SW (230°) 5.8mph 6°C 6°C
11/01/19 09:30 EIKN 110930Z 25006KT 0600 R26/0800N FG BKN003 BKN026 07/06 Q1034 NOSIG FG WSW (250°) 6.9mph 7°C 6°C
11/01/19 09:00 EIKN 110900Z 24006KT 0300 R26/0300U FG BKN001 BKN028 06/06 Q1034 NOSIG FG WSW (240°) 6.9mph 6°C 6°C
11/01/19 08:30 EIKN 110830Z 25005KT 220V280 0500 R26/0600D FG BKN003 BKN027 06/06 Q1034 NOSIG FG WSW (250°) 5.8mph 6°C 6°C
11/01/19 08:00 EIKN 110800Z 26004KT 1200 BR FEW001 BKN033 07/07 Q1034 NOSIG BR W (260°) 4.6mph 7°C 7°C
11/01/19 07:30 EIKN 110730Z 26005KT 9999 SCT001 OVC028 07/07 Q1033 NOSIG W (260°) 5.8mph 7°C 7°C
11/01/19 07:00 EIKN 110700Z 24006KT 9999 FEW005 BKN023 BKN035 07/07 Q1033 NOSIG WSW (240°) 6.9mph 7°C 7°C
11/01/19 06:30 EIKN 110630Z 23005KT 9999 FEW004 BKN031 07/06 Q1033 NOSIG SW (230°) 5.8mph 7°C 6°C
11/01/19 06:00 EIKN 110600Z 26007KT 9999 FEW004 OVC036 07/06 Q1033 NOSIG W (260°) 8.1mph 7°C 6°C
10/01/19 20:00 EIKN 102000Z 28005KT 9999 BKN046 09/04 Q1034 NOSIG W (280°) 5.8mph 9°C 4°C
10/01/19 19:30 EIKN 101930Z 27004KT 250V320 9999 BKN046 09/04 Q1034 NOSIG W (270°) 4.6mph 9°C 4°C
10/01/19 19:00 EIKN 101900Z 26003KT 9999 BKN046 08/05 Q1034 NOSIG W (260°) 3.5mph 8°C 5°C
10/01/19 18:30 EIKN 101830Z 26003KT 9999 BKN046 08/05 Q1034 NOSIG W (260°) 3.5mph 8°C 5°C
10/01/19 18:00 EIKN 101800Z 25004KT 9999 BKN047 08/06 Q1034 NOSIG WSW (250°) 4.6mph 8°C 6°C
10/01/19 17:30 EIKN 101730Z 26004KT 9999 BKN047 08/06 Q1034 NOSIG W (260°) 4.6mph 8°C 6°C
10/01/19 17:00 EIKN 101700Z 27002KT 9999 BKN047 08/06 Q1034 NOSIG W (270°) 2.3mph 8°C 6°C
10/01/19 16:30 EIKN 101630Z 27003KT 9999 FEW026 BKN047 08/08 Q1034 NOSIG W (270°) 3.5mph 8°C 8°C
10/01/19 16:00 EIKN 101600Z 28003KT 9999 FEW026 BKN047 09/06 Q1034 NOSIG W (280°) 3.5mph 9°C 6°C
10/01/19 15:30 EIKN 101530Z 26003KT 9999 FEW026 BKN048 09/07 Q1034 NOSIG W (260°) 3.5mph 9°C 7°C